Página principal
METAR-TAF:

METAR-TAF

Aeroportos :

Ambler, Alasca, Estados Unidos

latitude: 67-06N, longitude: 157-51W, altura: 88 m

Observação actual do tempo

O boletim foi feito há 1 hora e 1 minutos, às 10:56 UTC
Vento 4 kt de norte
Temperatura 13°C
Humidade 54%
Pressão 1015 hPa
Visibilidade: 16.1 km
Céu limpo

METAR: PAFM 211056Z AUTO 36004KT 10SM CLR 13/04 A2996 RMK AO2 SLP149 T01330039

Hora: 03:57 (11:57 UTC)


TAF: em falta

Observações e previsões do tempo de mais de 4000 aeroportos (mensagens METAR e TAF).

As estações disponíveis são os pontos amarelos e vermelhos sobre o mapa.

Mova o rato sobre o mapa para ver o nome da estação.

Depois clique no ponto para visualizar as observações e previsões meteorológicas.

Para alterar o mapa : clique nos botões verdes com uma cruz preta para aumentar o zoom; no botão verde com uma pitada de zoom; ou nas setas verdes para mapas adjacentes.


METAR-TAF: